createdAt,value
2019-01-16T00:02:39.268Z,6.72
2019-01-16T00:05:28.447Z,6.92
2019-01-16T00:08:30.485Z,10.55
2019-01-16T00:11:20.572Z,6.00
2019-01-16T00:14:25.509Z,7.15
2019-01-16T00:17:15.787Z,6.67
2019-01-16T00:20:21.126Z,5.25
2019-01-16T00:23:10.826Z,6.08
2019-01-16T00:26:03.892Z,8.10
2019-01-16T00:28:52.793Z,10.23
2019-01-16T00:31:48.782Z,11.08
2019-01-16T00:34:37.796Z,7.83
2019-01-16T00:37:26.434Z,6.30
2019-01-16T00:40:15.447Z,7.55
2019-01-16T00:43:05.384Z,7.15
2019-01-16T00:45:54.221Z,8.95
2019-01-16T00:48:37.838Z,5.67
2019-01-16T00:51:33.994Z,6.72
2019-01-16T00:54:22.772Z,5.80
2019-01-16T00:57:15.050Z,8.08
2019-01-16T01:00:08.936Z,5.67
2019-01-16T01:03:05.075Z,5.97
2019-01-16T01:05:58.039Z,3.92
2019-01-16T01:08:46.755Z,3.92
2019-01-16T01:11:52.138Z,3.80
2019-01-16T01:14:35.744Z,5.80
2019-01-16T01:17:14.375Z,4.35
2019-01-16T01:20:22.359Z,5.10
2019-01-16T01:23:15.099Z,3.67
2019-01-16T01:26:08.281Z,4.85
2019-01-16T01:28:57.364Z,3.50
2019-01-16T01:32:06.288Z,6.05
2019-01-16T01:35:02.302Z,2.83
2019-01-16T01:37:51.333Z,4.55
2019-01-16T01:40:59.611Z,3.80
2019-01-16T01:43:40.379Z,5.42
2019-01-16T01:46:28.832Z,5.03
2019-01-16T01:49:28.108Z,5.50
2019-01-16T01:52:21.039Z,6.72
2019-01-16T01:55:08.121Z,4.75
2019-01-16T01:57:56.954Z,5.85
2019-01-16T02:00:50.926Z,3.12
2019-01-16T02:03:38.026Z,4.12
2019-01-16T02:06:23.048Z,4.15
2019-01-16T02:09:11.011Z,5.42
2019-01-16T02:12:00.409Z,4.58
2019-01-16T02:14:49.037Z,7.75
2019-01-16T02:17:45.184Z,5.45
2019-01-16T02:20:38.790Z,6.10
2019-01-16T02:23:41.331Z,4.35
2019-01-16T02:26:30.223Z,5.28
2019-01-16T02:29:35.124Z,6.67
2019-01-16T02:32:35.455Z,5.08
2019-01-16T02:35:24.004Z,5.37
2019-01-16T02:38:12.571Z,5.15
2019-01-16T02:41:05.681Z,6.67
2019-01-16T02:44:14.026Z,3.98
2019-01-16T02:47:16.192Z,3.17
2019-01-16T02:49:57.270Z,3.42
2019-01-16T02:52:48.412Z,4.92
2019-01-16T02:55:50.853Z,5.50
2019-01-16T02:58:47.150Z,4.28
2019-01-16T03:01:40.559Z,6.58
2019-01-16T03:04:36.962Z,4.05
2019-01-16T03:07:15.328Z,5.85
2019-01-16T03:10:04.083Z,4.67
2019-01-16T03:13:03.263Z,3.37
2019-01-16T03:15:48.125Z,3.52
2019-01-16T03:18:50.812Z,4.08
2019-01-16T03:21:43.835Z,3.55
2019-01-16T03:24:43.228Z,5.22
2019-01-16T03:27:33.396Z,4.55
2019-01-16T03:30:23.340Z,2.98
2019-01-16T03:33:16.123Z,3.37
2019-01-16T03:36:09.103Z,4.22
2019-01-16T03:39:14.521Z,7.03
2019-01-16T03:42:16.801Z,4.55
2019-01-16T03:45:03.477Z,6.20
2019-01-16T03:47:50.310Z,6.40
2019-01-16T03:50:49.516Z,4.85
2019-01-16T03:53:43.635Z,6.00
2019-01-16T03:56:43.958Z,4.75
2019-01-16T03:59:27.376Z,5.00
2019-01-16T04:02:17.538Z,6.92
2019-01-16T04:05:19.424Z,6.10
2019-01-16T04:08:09.444Z,5.35
2019-01-16T04:11:00.684Z,4.80
2019-01-16T04:13:53.921Z,5.03
2019-01-16T04:16:50.023Z,4.60
2019-01-16T04:19:38.838Z,5.17
2019-01-16T04:22:37.648Z,5.55
2019-01-16T04:25:39.539Z,6.80
2019-01-16T04:28:24.770Z,5.75
2019-01-16T04:31:27.046Z,5.60
2019-01-16T04:34:20.184Z,4.97
2019-01-16T04:37:08.857Z,6.75
2019-01-16T04:40:11.112Z,8.98
2019-01-16T04:42:54.748Z,8.08
2019-01-16T04:45:36.061Z,9.78
2019-01-16T04:48:29.401Z,7.28
2019-01-16T04:51:20.392Z,12.05
2019-01-16T04:54:28.637Z,8.35
2019-01-16T04:57:20.146Z,6.55
2019-01-16T05:00:28.236Z,7.87
2019-01-16T05:03:20.867Z,10.48
2019-01-16T05:06:09.200Z,11.10
2019-01-16T05:09:02.062Z,10.45
2019-01-16T05:12:11.712Z,14.90
2019-01-16T05:15:02.907Z,11.20
2019-01-16T05:17:52.837Z,9.63
2019-01-16T05:20:41.661Z,12.07
2019-01-16T05:23:26.164Z,10.95
2019-01-16T05:26:18.920Z,11.20
2019-01-16T05:29:07.637Z,13.78
2019-01-16T05:32:00.698Z,11.33
2019-01-16T05:34:55.564Z,11.38
2019-01-16T05:37:57.483Z,9.38
2019-01-16T05:40:45.937Z,9.88
2019-01-16T05:43:38.787Z,11.88
2019-01-16T05:46:31.906Z,12.30
2019-01-16T05:49:24.897Z,13.53
2019-01-16T05:52:15.106Z,15.95
2019-01-16T05:55:04.476Z,13.48
2019-01-16T05:57:57.955Z,11.95
2019-01-16T06:00:51.579Z,15.72
2019-01-16T06:03:50.581Z,11.28
2019-01-16T06:06:49.674Z,13.20
2019-01-16T06:09:39.949Z,10.00
2019-01-16T06:12:33.344Z,10.58
2019-01-16T06:15:35.722Z,11.33
2019-01-16T06:18:40.787Z,12.23
2019-01-16T06:21:30.913Z,11.30
2019-01-16T06:24:39.318Z,10.95
2019-01-16T06:27:29.502Z,13.22
2019-01-16T06:30:08.799Z,11.30
2019-01-16T06:33:13.902Z,11.18
2019-01-16T06:36:04.188Z,13.08
2019-01-16T06:38:52.865Z,10.72
2019-01-16T06:41:42.996Z,8.60
2019-01-16T06:44:33.209Z,9.00
2019-01-16T06:47:19.587Z,8.55
2019-01-16T06:50:16.495Z,9.23
2019-01-16T06:53:05.047Z,9.03
2019-01-16T06:55:55.293Z,8.90
2019-01-16T06:58:45.154Z,10.13
2019-01-16T07:01:37.918Z,8.55
2019-01-16T07:04:27.063Z,7.92
2019-01-16T07:07:18.541Z,9.05
2019-01-16T07:10:17.452Z,7.85
2019-01-16T07:13:04.631Z,8.98
2019-01-16T07:15:47.803Z,7.60
2019-01-16T07:18:44.376Z,9.10
2019-01-16T07:21:52.648Z,9.85
2019-01-16T07:24:41.324Z,10.88
2019-01-16T07:27:34.560Z,8.85
2019-01-16T07:30:32.554Z,14.15
2019-01-16T07:33:34.724Z,10.95
2019-01-16T07:36:34.431Z,9.83
2019-01-16T07:39:30.999Z,8.93
2019-01-16T07:42:21.203Z,11.57
2019-01-16T07:45:16.083Z,12.75
2019-01-16T07:48:12.610Z,8.95
2019-01-16T07:51:08.709Z,7.20
2019-01-16T07:53:54.180Z,10.48
2019-01-16T07:56:42.798Z,8.60
2019-01-16T07:59:45.341Z,6.40
2019-01-16T08:02:46.389Z,7.47
2019-01-16T08:05:39.942Z,6.37
2019-01-16T08:08:33.148Z,10.00
2019-01-16T08:11:22.251Z,16.45
2019-01-16T08:14:15.186Z,20.40
2019-01-16T08:17:11.759Z,9.48
2019-01-16T08:20:00.409Z,11.48
2019-01-16T08:22:43.446Z,11.45
2019-01-16T08:25:32.525Z,9.83
2019-01-16T08:28:27.178Z,12.98
2019-01-16T08:31:19.674Z,12.93
2019-01-16T08:34:16.963Z,10.88
2019-01-16T08:37:07.097Z,10.40
2019-01-16T08:39:57.325Z,10.10
2019-01-16T08:42:46.046Z,8.08
2019-01-16T08:45:35.091Z,8.28
2019-01-16T08:48:31.250Z,8.13
2019-01-16T08:51:20.338Z,9.83
2019-01-16T08:54:09.058Z,6.87
2019-01-16T08:57:07.734Z,10.48
2019-01-16T08:59:56.937Z,5.55
2019-01-16T09:02:44.935Z,4.85
2019-01-16T09:05:35.726Z,9.23
2019-01-16T09:08:31.260Z,7.47
2019-01-16T09:11:27.646Z,5.78
2019-01-16T09:14:16.985Z,6.35
2019-01-16T09:17:10.168Z,4.85
2019-01-16T09:20:06.806Z,8.05
2019-01-16T09:22:46.915Z,5.72
2019-01-16T09:25:35.835Z,5.47
2019-01-16T09:28:34.841Z,3.30
2019-01-16T09:31:30.899Z,6.28
2019-01-16T09:34:27.430Z,4.28
2019-01-16T09:37:17.731Z,3.33
2019-01-16T09:40:06.864Z,4.58
2019-01-16T09:42:55.784Z,4.85
2019-01-16T09:45:54.933Z,6.90
2019-01-16T09:49:03.587Z,6.55
2019-01-16T09:52:02.579Z,3.98
2019-01-16T09:54:58.697Z,3.22
2019-01-16T09:57:47.186Z,2.90
2019-01-16T10:00:42.769Z,5.00
2019-01-16T10:03:33.228Z,11.68
2019-01-16T10:06:30.751Z,17.65
2019-01-16T10:09:23.722Z,5.28
2019-01-16T10:12:13.904Z,2.37
2019-01-16T10:15:04.294Z,4.72
2019-01-16T10:17:52.893Z,4.75
2019-01-16T10:20:46.042Z,3.72
2019-01-16T10:23:34.431Z,2.45
2019-01-16T10:26:23.386Z,3.85
2019-01-16T10:29:19.858Z,4.62
2019-01-16T10:32:22.280Z,5.95
2019-01-16T10:35:12.419Z,10.60
2019-01-16T10:38:02.621Z,11.68
2019-01-16T10:41:05.160Z,6.58
2019-01-16T10:44:04.466Z,7.42
2019-01-16T10:46:54.758Z,5.00
2019-01-16T10:49:46.055Z,4.85
2019-01-16T10:52:36.211Z,10.25
2019-01-16T10:55:29.143Z,8.15
2019-01-16T10:58:18.274Z,3.22
2019-01-16T11:01:14.019Z,5.95
2019-01-16T11:04:16.485Z,4.85
2019-01-16T11:07:03.396Z,4.17
2019-01-16T11:10:00.090Z,4.83
2019-01-16T11:12:46.430Z,4.50
2019-01-16T11:15:35.265Z,6.28
2019-01-16T11:18:29.074Z,3.65
2019-01-16T11:21:28.316Z,3.98
2019-01-16T11:24:20.539Z,3.77
2019-01-16T11:27:26.205Z,5.40
2019-01-16T11:30:30.096Z,3.72
2019-01-16T11:33:20.211Z,2.80
2019-01-16T11:36:19.513Z,3.40
2019-01-16T11:39:08.553Z,4.53
2019-01-16T11:41:49.232Z,4.90
2019-01-16T11:44:42.191Z,3.42
2019-01-16T11:47:38.461Z,4.30
2019-01-16T11:50:19.201Z,5.37
2019-01-16T11:53:07.856Z,3.98
2019-01-16T11:55:46.868Z,4.28
2019-01-16T11:58:36.800Z,2.98
2019-01-16T12:01:36.328Z,6.75
2019-01-16T12:04:23.532Z,5.10
2019-01-16T12:07:29.082Z,4.65
2019-01-16T12:10:17.834Z,5.53
2019-01-16T12:13:11.538Z,5.03
2019-01-16T12:16:05.059Z,3.75
2019-01-16T12:18:49.054Z,3.40
2019-01-16T12:21:37.793Z,5.12
2019-01-16T12:24:23.079Z,4.35
2019-01-16T12:27:12.122Z,4.30
2019-01-16T12:30:02.177Z,6.30
2019-01-16T12:33:04.013Z,5.58
2019-01-16T12:35:59.692Z,4.75
2019-01-16T12:38:49.828Z,5.47
2019-01-16T12:41:35.226Z,4.27
2019-01-16T12:44:28.472Z,4.20
2019-01-16T12:47:18.534Z,4.08
2019-01-16T12:50:07.670Z,5.10
2019-01-16T12:52:53.956Z,8.60
2019-01-16T12:55:38.563Z,4.15
2019-01-16T12:58:47.209Z,3.35
2019-01-16T13:01:42.187Z,4.92
2019-01-16T13:04:31.183Z,4.25
2019-01-16T13:07:24.407Z,3.77
2019-01-16T13:10:13.164Z,4.30
2019-01-16T13:13:15.477Z,6.05
2019-01-16T13:16:04.353Z,3.40
2019-01-16T13:19:09.751Z,4.00
2019-01-16T13:22:02.868Z,3.35
2019-01-16T13:24:51.619Z,3.87
2019-01-16T13:27:53.692Z,3.70
2019-01-16T13:30:43.776Z,5.25
2019-01-16T13:33:29.806Z,4.33
2019-01-16T13:36:20.016Z,5.92
2019-01-16T13:39:01.555Z,4.03
2019-01-16T13:41:52.180Z,3.80
2019-01-16T13:44:42.472Z,3.40
2019-01-16T13:47:50.936Z,3.58
2019-01-16T13:50:32.830Z,4.95
2019-01-16T13:53:21.109Z,5.28
2019-01-16T13:56:16.428Z,6.92
2019-01-16T13:58:58.003Z,4.65
2019-01-16T14:01:46.694Z,4.50
2019-01-16T14:04:36.886Z,3.85
2019-01-16T14:07:33.070Z,4.83
2019-01-16T14:10:42.210Z,5.20
2019-01-16T14:13:38.346Z,5.65
2019-01-16T14:16:40.366Z,4.35
2019-01-16T14:19:36.769Z,4.55
2019-01-16T14:22:36.236Z,3.87
2019-01-16T14:25:45.454Z,4.62
2019-01-16T14:28:51.758Z,6.12
2019-01-16T14:31:45.393Z,5.50
2019-01-16T14:34:41.791Z,8.63
2019-01-16T14:37:30.515Z,14.60
2019-01-16T14:40:29.516Z,13.18
2019-01-16T14:43:19.647Z,12.23
2019-01-16T14:46:15.929Z,15.65
2019-01-16T14:48:57.371Z,10.68
2019-01-16T14:51:45.947Z,11.10
2019-01-16T14:54:36.118Z,8.18
2019-01-16T14:57:29.732Z,8.00
2019-01-16T15:00:32.601Z,8.33
2019-01-16T15:03:22.274Z,6.78
2019-01-16T15:06:18.201Z,7.50
2019-01-16T15:09:17.252Z,8.30
2019-01-16T15:12:07.525Z,7.78
2019-01-16T15:15:00.673Z,4.03
2019-01-16T15:17:53.599Z,4.30
2019-01-16T15:20:42.463Z,4.83
2019-01-16T15:23:21.115Z,5.45
2019-01-16T15:26:14.503Z,6.08
2019-01-16T15:29:16.573Z,5.47
2019-01-16T15:32:06.086Z,4.45
2019-01-16T15:34:55.200Z,4.28
2019-01-16T15:38:00.840Z,6.20
2019-01-16T15:41:00.207Z,4.30
2019-01-16T15:43:50.488Z,4.20
2019-01-16T15:46:31.318Z,6.42
2019-01-16T15:49:21.457Z,6.70
2019-01-16T15:52:13.104Z,7.08
2019-01-16T15:55:00.703Z,9.60
2019-01-16T15:57:59.564Z,7.37
2019-01-16T16:00:42.782Z,8.28
2019-01-16T16:03:51.174Z,6.17
2019-01-16T16:06:50.080Z,6.28
2019-01-16T16:09:42.034Z,6.83
2019-01-16T16:12:44.229Z,6.00
2019-01-16T16:15:33.389Z,6.08
2019-01-16T16:18:26.458Z,6.58
2019-01-16T16:21:16.713Z,5.15
2019-01-16T16:24:11.311Z,5.92
2019-01-16T16:26:56.372Z,7.80
2019-01-16T16:30:01.657Z,6.65
2019-01-16T16:33:02.133Z,7.45
2019-01-16T16:35:50.621Z,7.35
2019-01-16T16:38:46.886Z,5.80
2019-01-16T16:41:32.741Z,10.00
2019-01-16T16:44:15.783Z,5.87
2019-01-16T16:47:19.203Z,7.20
2019-01-16T16:50:12.225Z,5.55
2019-01-16T16:53:01.245Z,6.67
2019-01-16T16:55:58.956Z,5.05
2019-01-16T16:58:54.407Z,7.17
2019-01-16T17:01:46.940Z,7.50
2019-01-16T17:04:37.104Z,7.08
2019-01-16T17:07:42.461Z,5.28
2019-01-16T17:10:32.775Z,4.80
2019-01-16T17:13:34.789Z,8.40
2019-01-16T17:16:29.669Z,7.33
2019-01-16T17:19:19.887Z,5.97
2019-01-16T17:22:08.556Z,5.97
2019-01-16T17:25:02.706Z,5.42
2019-01-16T17:28:05.228Z,4.28
2019-01-16T17:30:49.260Z,6.55
2019-01-16T17:33:38.187Z,4.45
2019-01-16T17:36:34.621Z,4.85
2019-01-16T17:39:36.348Z,7.08
2019-01-16T17:42:28.101Z,5.25
2019-01-16T17:45:24.284Z,5.70
2019-01-16T17:48:17.081Z,5.62
2019-01-16T17:51:12.480Z,6.85
2019-01-16T17:54:01.609Z,7.50
2019-01-16T17:57:04.117Z,7.28
2019-01-16T18:00:09.237Z,8.20
2019-01-16T18:03:17.732Z,7.37
2019-01-16T18:06:07.840Z,5.30
2019-01-16T18:08:57.290Z,7.33
2019-01-16T18:11:45.959Z,7.67
2019-01-16T18:14:35.039Z,8.30
2019-01-16T18:17:25.573Z,5.50
2019-01-16T18:20:15.810Z,7.87
2019-01-16T18:23:05.872Z,8.88
2019-01-16T18:25:54.527Z,6.95
2019-01-16T18:28:49.050Z,6.45
2019-01-16T18:31:39.296Z,5.60
2019-01-16T18:34:29.241Z,5.62
2019-01-16T18:37:31.164Z,6.87
2019-01-16T18:40:21.553Z,9.60
2019-01-16T18:43:19.751Z,6.58
2019-01-16T18:46:08.770Z,12.15
2019-01-16T18:49:50.402Z,9.15
2019-01-16T18:53:18.753Z,13.75
2019-01-16T18:56:31.200Z,11.18
2019-01-16T18:59:55.168Z,12.13
2019-01-16T19:02:59.978Z,8.58
2019-01-16T19:06:29.683Z,8.20
2019-01-16T19:09:52.907Z,6.30
2019-01-16T19:13:22.893Z,5.08
2019-01-16T19:16:14.235Z,6.92
2019-01-16T19:19:46.635Z,4.03
2019-01-16T19:22:35.644Z,2.50
2019-01-16T19:25:28.828Z,3.00
2019-01-16T19:28:09.150Z,2.70
2019-01-16T19:30:58.118Z,3.27
2019-01-16T19:33:54.003Z,3.35
2019-01-16T19:36:35.464Z,3.52
2019-01-16T19:39:39.684Z,4.72
2019-01-16T19:42:29.865Z,4.20
2019-01-16T19:45:19.871Z,3.22
2019-01-16T19:49:08.705Z,5.97
2019-01-16T19:52:07.816Z,9.25
2019-01-16T19:55:53.499Z,26.48
2019-01-16T19:59:33.684Z,8.00
2019-01-16T20:02:24.623Z,8.75
2019-01-16T20:05:05.836Z,5.70
2019-01-16T20:07:58.895Z,5.53
2019-01-16T20:10:54.753Z,4.45
2019-01-16T20:13:37.389Z,5.20
2019-01-16T20:16:25.992Z,7.10
2019-01-16T20:19:18.965Z,9.85
2019-01-16T20:22:07.255Z,6.70
2019-01-16T20:24:59.902Z,5.85
2019-01-16T20:27:48.780Z,6.78
2019-01-16T20:30:48.503Z,6.70
2019-01-16T20:33:45.015Z,5.28
2019-01-16T20:36:27.947Z,5.40
2019-01-16T20:39:24.347Z,5.08
2019-01-16T20:42:22.074Z,5.28
2019-01-16T20:45:21.201Z,6.22
2019-01-16T20:48:09.543Z,3.40
2019-01-16T20:51:08.555Z,5.72
2019-01-16T20:54:04.626Z,4.65
2019-01-16T20:56:50.047Z,56.30
2019-01-16T20:59:39.319Z,60.08
2019-01-16T21:02:47.349Z,58.40
2019-01-16T21:05:36.010Z,61.53
2019-01-16T21:08:30.079Z,71.22
2019-01-16T21:11:32.153Z,63.83
2019-01-16T21:14:27.963Z,58.85
2019-01-16T21:17:14.396Z,61.80
2019-01-16T21:19:59.611Z,63.13
2019-01-16T21:22:58.400Z,62.25
2019-01-16T21:25:37.099Z,56.23
2019-01-16T21:28:33.086Z,59.38
2019-01-16T21:31:28.972Z,59.03
2019-01-16T21:34:17.497Z,50.92
2019-01-16T21:37:05.989Z,57.73
2019-01-16T21:40:02.391Z,47.75
2019-01-16T21:43:01.295Z,47.20
2019-01-16T21:45:49.279Z,38.65
2019-01-16T21:48:46.612Z,42.08
2019-01-16T21:51:36.330Z,33.80
2019-01-16T21:54:32.209Z,34.00
2019-01-16T21:57:20.562Z,33.40
2019-01-16T22:00:13.358Z,29.70
2019-01-16T22:03:07.736Z,39.23
2019-01-16T22:06:15.850Z,34.58
2019-01-16T22:09:05.807Z,32.28
2019-01-16T22:11:58.599Z,34.73
2019-01-16T22:14:41.055Z,40.10
2019-01-16T22:17:31.168Z,39.18
2019-01-16T22:20:28.046Z,32.85
2019-01-16T22:23:07.903Z,36.17
2019-01-16T22:26:00.687Z,33.98
2019-01-16T22:28:49.227Z,36.65
2019-01-16T22:31:37.951Z,37.40
2019-01-16T22:34:26.744Z,36.05
2019-01-16T22:37:19.685Z,34.90
2019-01-16T22:40:18.961Z,35.52
2019-01-16T22:43:16.246Z,35.30
2019-01-16T22:46:05.002Z,33.88
2019-01-16T22:48:50.164Z,34.25
2019-01-16T22:51:39.061Z,40.52
2019-01-16T22:54:44.191Z,35.65
2019-01-16T22:57:42.274Z,35.48
2019-01-16T23:00:41.004Z,43.30
2019-01-16T23:03:38.641Z,41.55
2019-01-16T23:06:33.354Z,43.95
2019-01-16T23:09:35.338Z,37.73
2019-01-16T23:12:25.555Z,39.73
2019-01-16T23:15:11.319Z,76.80
2019-01-16T23:18:13.289Z,51.50
2019-01-16T23:21:01.823Z,49.65
2019-01-16T23:23:54.924Z,45.03
2019-01-16T23:26:43.624Z,40.95
2019-01-16T23:29:34.066Z,44.27
2019-01-16T23:32:30.096Z,49.67
2019-01-16T23:35:18.233Z,48.95
2019-01-16T23:38:08.174Z,46.58
2019-01-16T23:40:56.543Z,49.93
2019-01-16T23:43:44.938Z,49.65
2019-01-16T23:46:33.617Z,52.38
2019-01-16T23:49:23.523Z,55.58
2019-01-16T23:52:31.656Z,55.23
2019-01-16T23:55:19.756Z,65.65
2019-01-16T23:58:18.325Z,69.47
